Time;durP1;ratioP1;P1;durP2;ratioP2;P2;SDS_P1;SDS_P2;PMS_P1;PMS_P2;Temp;Humidity;BMP_temperature;BMP_pressure;BME280_temperature;BME280_humidity;BME280_pressure;Samples;Min_cycle;Max_cycle;Signal;HPM_P1;HPM_P2
2023/11/12 00:00:45;;;;;;;2.93;2.43;;;6.00;82.50;;;7.77;59.24;96837.50;5010081;28;20053;-62
2023/11/12 00:03:13;;;;;;;5.67;2.37;;;6.00;82.80;;;7.83;59.14;96828.06;5010900;28;20042;-63
2023/11/12 00:05:41;;;;;;;3.70;2.27;;;6.10;82.80;;;7.87;59.43;96824.09;5010155;28;20046;-62
2023/11/12 00:08:08;;;;;;;3.23;2.03;;;6.10;82.50;;;7.86;59.21;96828.59;5011261;28;20050;-62
2023/11/12 00:10:36;;;;;;;4.50;2.20;;;6.00;83.00;;;7.88;59.14;96826.59;5011200;28;20411;-62
2023/11/12 00:13:04;;;;;;;3.23;2.07;;;6.10;83.20;;;7.89;59.31;96817.66;5010951;28;20042;-62
2023/11/12 00:15:31;;;;;;;2.93;2.00;;;6.20;82.80;;;7.81;59.71;96815.03;5011544;28;20057;-62
2023/11/12 00:17:59;;;;;;;3.00;2.70;;;6.00;83.00;;;7.81;59.27;96820.31;5001835;28;20045;-62
2023/11/12 00:20:28;;;;;;;4.60;2.37;;;6.00;83.20;;;7.82;59.55;96808.72;5009762;28;20053;-62
2023/11/12 00:22:55;;;;;;;3.77;2.30;;;6.00;83.40;;;7.85;59.21;96810.19;5010607;28;20521;-62
2023/11/12 00:25:24;;;;;;;3.07;2.20;;;6.10;83.80;;;7.87;59.49;96814.34;4993517;28;20049;-63
2023/11/12 00:27:54;;;;;;;3.27;2.60;;;6.10;83.90;;;7.88;59.38;96805.41;5011390;28;20057;-62
2023/11/12 00:30:22;;;;;;;4.70;2.40;;;6.10;83.10;;;7.92;59.34;96805.06;5009797;28;20046;-63
2023/11/12 00:32:49;;;;;;;3.30;2.07;;;6.10;82.60;;;7.90;59.30;96810.53;5009369;28;20053;-62
2023/11/12 00:35:17;;;;;;;5.73;2.10;;;6.10;83.30;;;7.91;59.31;96811.34;5010606;28;20475;-62
2023/11/12 00:37:46;;;;;;;2.83;2.20;;;6.10;82.80;;;7.91;59.40;96812.22;5010727;28;20052;-62
2023/11/12 00:40:14;;;;;;;4.13;2.10;;;6.00;83.40;;;7.89;59.33;96803.59;5009740;28;20101;-62
2023/11/12 00:42:41;;;;;;;3.50;2.37;;;6.00;83.10;;;7.91;59.28;96796.31;5009074;28;20430;-62
2023/11/12 00:45:09;;;;;;;4.10;2.17;;;6.00;82.90;;;7.84;59.37;96797.94;5012051;28;20046;-62
2023/11/12 00:47:37;;;;;;;4.03;2.07;;;6.00;83.50;;;7.83;59.78;96789.19;5013661;28;20045;-62
2023/11/12 00:50:06;;;;;;;4.50;2.00;;;6.00;83.20;;;7.83;59.69;96781.22;5013572;28;20438;-62
2023/11/12 00:52:34;;;;;;;4.43;2.57;;;6.00;83.50;;;7.83;59.24;96781.22;5014229;28;20037;-62
2023/11/12 00:55:02;;;;;;;3.90;2.00;;;6.00;83.90;;;7.90;58.94;96786.69;5013600;28;20056;-62
2023/11/12 00:57:30;;;;;;;3.27;2.40;;;6.10;83.20;;;7.92;59.39;96786.53;5014016;28;20045;-62
2023/11/12 00:59:58;;;;;;;2.87;2.10;;;6.10;82.90;;;7.93;59.20;96789.03;5013315;28;20042;-62
2023/11/12 01:02:28;;;;;;;2.00;1.80;;;6.10;83.30;;;7.93;59.62;96775.78;5014436;28;20042;-62
2023/11/12 01:04:56;;;;;;;3.53;2.30;;;6.20;82.80;;;7.94;59.48;96774.75;5014377;28;20046;-62
2023/11/12 01:07:23;;;;;;;3.30;1.90;;;6.10;83.50;;;7.94;59.69;96769.44;5013379;28;20050;-62
2023/11/12 01:09:52;;;;;;;2.80;2.27;;;6.10;83.80;;;7.97;59.48;96774.44;5013242;28;20072;-62
2023/11/12 01:12:21;;;;;;;3.20;1.80;;;6.20;83.30;;;7.98;59.61;96770.78;5014069;28;20419;-62
2023/11/12 01:14:49;;;;;;;2.27;1.80;;;6.20;83.20;;;7.99;59.66;96772.44;5012799;28;20062;-63
2023/11/12 01:17:17;;;;;;;4.33;2.10;;;6.30;83.30;;;8.02;59.30;96774.75;5013102;28;20053;-62
2023/11/12 01:19:45;;;;;;;1.77;1.57;;;6.30;83.20;;;7.99;59.56;96772.44;5013111;28;20053;-62
2023/11/12 01:22:13;;;;;;;2.53;1.83;;;6.30;82.60;;;7.98;59.76;96775.25;5012548;28;20058;-62
2023/11/12 01:24:40;;;;;;;2.03;1.83;;;6.30;83.00;;;7.96;59.82;96782.56;5012860;28;20046;-62
2023/11/12 01:27:08;;;;;;;4.13;1.80;;;6.20;83.10;;;7.96;59.80;96775.41;5014082;28;20042;-65
2023/11/12 01:29:36;;;;;;;2.67;1.80;;;6.20;83.30;;;8.01;59.80;96777.59;4996254;28;20046;-62
2023/11/12 01:32:04;;;;;;;3.07;1.70;;;6.20;82.90;;;8.04;59.34;96775.41;5012599;28;20046;-62
2023/11/12 01:34:32;;;;;;;2.37;2.10;;;6.20;83.00;;;8.05;59.63;96763.81;5012953;28;20053;-62
2023/11/12 01:37:00;;;;;;;4.57;1.83;;;6.20;83.30;;;8.07;59.43;96767.13;5012798;28;20054;-62
2023/11/12 01:39:27;;;;;;;2.50;1.93;;;6.20;83.10;;;8.07;59.52;96766.31;5012701;28;20061;-62
2023/11/12 01:41:56;;;;;;;2.87;1.90;;;6.20;82.80;;;8.05;59.23;96763.81;5013559;28;20404;-62
2023/11/12 01:44:23;;;;;;;4.17;2.10;;;6.20;83.30;;;8.04;59.15;96764.81;5012578;28;20503;-62
2023/11/12 01:46:51;;;;;;;2.73;2.00;;;6.20;83.00;;;7.96;59.46;96764.81;5012695;28;20507;-62
2023/11/12 01:49:20;;;;;;;3.13;1.80;;;6.10;83.30;;;7.99;59.44;96772.44;5012655;28;20041;-62
2023/11/12 01:51:50;;;;;;;3.37;2.47;;;6.20;83.10;;;7.96;59.38;96764.81;5013418;28;20038;-62
2023/11/12 01:54:18;;;;;;;4.37;2.53;;;6.10;82.60;;;7.94;59.48;96764.16;5012364;28;20519;-62
2023/11/12 01:56:46;;;;;;;2.30;2.10;;;6.10;82.70;;;7.88;59.34;96757.69;5008637;28;20447;-62
2023/11/12 01:59:14;;;;;;;2.83;1.80;;;6.10;82.80;;;7.88;59.65;96759.53;4996150;28;20060;-63
2023/11/12 02:01:42;;;;;;;3.90;2.37;;;6.10;82.80;;;7.87;59.55;96756.06;5013276;28;20045;-62
2023/11/12 02:04:11;;;;;;;2.13;1.60;;;6.10;82.40;;;7.88;59.29;96749.75;5004163;28;20054;-61
2023/11/12 02:06:39;;;;;;;3.70;2.37;;;6.10;82.80;;;7.91;59.29;96739.81;5012398;28;20050;-63
2023/11/12 02:09:06;;;;;;;4.33;2.33;;;6.10;82.70;;;7.94;59.26;96747.44;5011920;28;20049;-62
2023/11/12 02:11:34;;;;;;;2.37;1.80;;;6.10;82.80;;;7.95;59.32;96741.13;5011937;28;20057;-61
2023/11/12 02:14:02;;;;;;;1.70;1.60;;;6.10;83.20;;;7.96;59.48;96740.97;5011653;28;20045;-62
2023/11/12 02:16:30;;;;;;;2.77;2.10;;;6.20;82.90;;;7.95;59.64;96733.16;5012411;28;20053;-62
2023/11/12 02:18:58;;;;;;;2.57;2.30;;;6.20;82.20;;;7.96;59.24;96733.00;5011849;28;20530;-63
2023/11/12 02:21:32;;;;;;;2.90;1.73;;;6.10;82.90;;;7.92;59.62;96737.00;5011894;28;20077;-61
2023/11/12 02:23:59;;;;;;;2.47;1.50;;;6.10;83.20;;;7.97;59.33;96734.69;5011662;28;20062;-61
2023/11/12 02:26:27;;;;;;;3.10;1.70;;;6.10;83.10;;;7.98;59.28;96733.66;5003519;28;20507;-63
2023/11/12 02:28:55;;;;;;;2.70;1.50;;;6.10;82.70;;;7.95;59.22;96725.22;4995166;28;20046;-63
2023/11/12 02:31:22;;;;;;;2.40;1.73;;;6.10;82.60;;;7.95;59.34;96723.41;5011871;28;20046;-63
2023/11/12 02:33:50;;;;;;;3.57;1.77;;;6.10;82.60;;;7.96;59.42;96735.66;5011362;28;20533;-61
2023/11/12 02:36:19;;;;;;;3.20;1.47;;;6.10;82.60;;;8.02;58.99;96729.69;5011862;28;20049;-61
2023/11/12 02:38:47;;;;;;;2.90;1.50;;;6.20;82.40;;;8.06;58.75;96716.94;5011239;28;20077;-62
2023/11/12 02:41:18;;;;;;;1.93;1.30;;;6.20;81.60;;;8.05;58.85;96725.88;4995541;28;20435;-61
2023/11/12 02:43:46;;;;;;;3.97;1.70;;;6.10;81.50;;;8.03;58.71;96717.28;5011062;28;20056;-61
2023/11/12 02:46:15;;;;;;;2.80;1.53;;;6.10;81.40;;;8.01;58.29;96713.97;5012648;28;20068;-61
2023/11/12 02:49:07;;;;;;;3.47;1.77;;;6.00;81.50;;;7.96;58.39;96706.50;5011463;28;20423;-61
2023/11/12 02:51:35;;;;;;;1.90;1.40;;;6.00;82.00;;;7.92;58.03;96704.38;5006202;28;20511;-61
2023/11/12 02:54:03;;;;;;;1.73;1.30;;;5.90;82.30;;;7.85;58.55;96693.59;5012397;28;20053;-61
2023/11/12 02:56:31;;;;;;;2.40;1.60;;;5.80;82.30;;;7.81;58.22;96697.56;5011572;28;20050;-62
2023/11/12 02:58:59;;;;;;;2.07;1.50;;;5.80;82.10;;;7.73;58.49;96695.75;5011407;28;20052;-62
2023/11/12 03:01:27;;;;;;;2.67;1.70;;;5.70;82.30;;;7.68;58.66;96692.81;5011266;28;20400;-61
2023/11/12 03:03:55;;;;;;;2.10;1.50;;;5.70;82.40;;;7.62;58.70;96689.00;5010955;28;20057;-61
2023/11/12 03:06:23;;;;;;;4.33;2.03;;;5.60;82.40;;;7.54;58.68;96681.06;5010832;28;20057;-61
2023/11/12 03:08:50;;;;;;;3.10;1.70;;;5.50;83.10;;;7.51;58.50;96667.31;5010490;28;20495;-61
2023/11/12 03:11:18;;;;;;;5.10;1.57;;;5.40;83.00;;;7.41;58.52;96665.66;5012196;28;20518;-61
2023/11/12 03:13:46;;;;;;;2.87;2.00;;;5.40;83.80;;;7.39;58.50;96662.34;5010492;28;20049;-61
2023/11/12 03:16:14;;;;;;;2.30;1.47;;;5.30;84.00;;;7.35;58.64;96654.88;5010839;28;20046;-61
2023/11/12 03:18:46;;;;;;;4.07;1.67;;;5.30;84.20;;;7.35;59.03;96653.06;5011978;28;20057;-62
2023/11/12 03:21:14;;;;;;;2.33;1.57;;;5.30;84.40;;;7.30;59.17;96640.31;5011824;28;20050;-62
2023/11/12 03:23:41;;;;;;;1.77;1.53;;;5.30;84.50;;;7.31;58.95;96627.91;5010501;28;20049;-62
2023/11/12 03:26:10;;;;;;;3.23;1.67;;;5.30;84.40;;;7.35;58.76;96641.63;5011555;28;20399;-62
2023/11/12 03:28:38;;;;;;;2.03;1.70;;;5.30;84.10;;;7.36;58.87;96645.94;5010380;28;20053;-61
2023/11/12 03:31:05;;;;;;;2.73;1.87;;;5.40;83.70;;;7.35;59.10;96641.63;5011814;28;20053;-61
2023/11/12 03:33:35;;;;;;;5.33;2.40;;;5.40;83.30;;;7.34;58.96;96642.63;5010374;28;20100;-61
2023/11/12 03:36:04;;;;;;;3.63;2.50;;;5.40;83.50;;;7.33;58.41;96644.47;5011726;28;20442;-61
2023/11/12 03:38:31;;;;;;;5.13;2.67;;;5.40;82.70;;;7.25;58.40;96636.50;5010432;28;20442;-62
2023/11/12 03:40:59;;;;;;;5.40;3.30;;;5.20;83.90;;;7.19;58.71;96638.00;4994526;28;20443;-61
2023/11/12 03:43:27;;;;;;;2.93;2.40;;;5.10;84.20;;;7.16;59.10;96634.88;5010213;28;20491;-61
2023/11/12 03:45:54;;;;;;;3.00;2.03;;;5.10;84.30;;;7.13;59.07;96638.66;5010337;28;20045;-61
2023/11/12 03:48:22;;;;;;;3.00;2.67;;;5.00;84.40;;;7.03;58.62;96636.16;5011695;28;20045;-62
2023/11/12 03:50:49;;;;;;;3.50;2.20;;;4.90;85.00;;;6.99;59.01;96637.47;4994170;28;20049;-62
2023/11/12 03:53:17;;;;;;;3.40;1.70;;;4.90;85.60;;;6.98;59.03;96629.69;5011069;28;20042;-62
2023/11/12 03:55:45;;;;;;;4.87;1.63;;;4.90;85.10;;;6.97;58.99;96633.34;5011494;28;20052;-62
2023/11/12 03:58:13;;;;;;;2.93;1.73;;;4.90;85.10;;;6.97;59.23;96623.59;5009421;28;20062;-62
2023/11/12 04:00:40;;;;;;;2.93;2.07;;;4.90;85.00;;;6.94;59.32;96621.28;5009831;28;20510;-62
2023/11/12 04:03:09;;;;;;;2.17;1.50;;;4.90;84.90;;;6.90;59.14;96618.13;5009539;28;20064;-62
2023/11/12 04:05:37;;;;;;;2.77;1.30;;;4.80;85.00;;;6.88;59.33;96609.53;5011098;28;20038;-62
2023/11/12 04:08:05;;;;;;;2.47;2.13;;;4.80;86.90;;;6.88;59.15;96609.53;5009667;28;20057;-61
2023/11/12 04:10:32;;;;;;;5.37;2.17;;;4.80;85.60;;;6.92;58.86;96598.59;5011165;28;20145;-62
2023/11/12 04:13:02;;;;;;;4.03;1.53;;;4.90;85.50;;;6.95;59.19;96606.22;5009555;28;20053;-62
2023/11/12 04:15:29;;;;;;;2.90;1.43;;;5.00;85.20;;;6.96;59.12;96603.41;5010021;28;20523;-62
2023/11/12 04:17:57;;;;;;;1.93;1.30;;;5.00;84.70;;;6.98;59.16;96600.59;5009569;28;20050;-62
2023/11/12 04:20:28;;;;;;;3.63;1.73;;;5.10;84.70;;;6.99;58.97;96596.97;4993289;28;20056;-62
2023/11/12 04:22:57;;;;;;;2.77;1.97;;;5.00;84.40;;;6.98;59.18;96596.13;5009697;28;20053;-63
2023/11/12 04:25:25;;;;;;;2.47;1.90;;;5.00;84.50;;;6.98;58.80;96590.84;5009789;28;20057;-62
2023/11/12 04:27:53;;;;;;;2.73;1.77;;;5.00;84.20;;;6.98;59.41;96590.84;5011010;28;20042;-62
2023/11/12 04:30:21;;;;;;;2.40;1.90;;;5.00;84.20;;;6.95;58.91;96590.34;5009406;28;20518;-62
2023/11/12 04:32:49;;;;;;;4.13;2.90;;;5.00;84.20;;;6.94;58.85;96588.69;5009352;28;20447;-61
2023/11/12 04:35:19;;;;;;;3.87;1.90;;;4.90;84.30;;;6.89;58.79;96589.19;5009773;28;20057;-62
2023/11/12 04:37:46;;;;;;;3.07;1.60;;;4.80;84.10;;;6.87;58.88;96591.16;5010761;28;20065;-62
2023/11/12 04:40:16;;;;;;;5.83;2.37;;;4.90;84.50;;;6.83;59.45;96585.38;5009558;28;20244;-62
2023/11/12 04:42:44;;;;;;;3.87;2.10;;;4.80;84.30;;;6.83;59.29;96592.47;5009017;28;20053;-61
2023/11/12 04:45:12;;;;;;;2.93;1.90;;;4.80;84.60;;;6.81;59.32;96591.81;5010278;28;20049;-62
2023/11/12 04:47:40;;;;;;;3.67;1.70;;;4.70;84.60;;;6.78;59.43;96586.84;5010816;28;20407;-62
2023/11/12 04:50:08;;;;;;;2.67;1.90;;;4.70;85.20;;;6.75;59.47;96589.84;5010673;28;20122;-62
2023/11/12 04:52:36;;;;;;;3.10;2.20;;;4.70;85.30;;;6.74;59.17;96586.34;5010432;28;20057;-62
2023/11/12 04:55:04;;;;;;;2.83;1.77;;;4.70;85.60;;;6.74;59.66;96581.03;5009333;28;20053;-62
2023/11/12 04:57:31;;;;;;;1.97;1.60;;;4.70;85.70;;;6.71;58.95;96576.09;5008162;28;20053;-62
2023/11/12 05:00:00;;;;;;;2.40;1.70;;;4.60;86.10;;;6.73;59.33;96575.91;5010416;28;20041;-62
2023/11/12 05:02:27;;;;;;;3.87;2.23;;;4.70;86.40;;;6.72;59.49;96580.38;5002909;28;20046;-62
2023/11/12 05:04:55;;;;;;;4.70;2.00;;;4.70;85.90;;;6.73;59.33;96581.19;5010622;28;20042;-62
2023/11/12 05:07:23;;;;;;;2.80;1.63;;;4.70;85.70;;;6.72;59.37;96582.22;5010318;28;20049;-62
2023/11/12 05:09:51;;;;;;;3.77;1.83;;;4.70;85.30;;;6.72;59.27;96587.50;5010376;28;20042;-62
2023/11/12 05:12:20;;;;;;;3.27;1.93;;;4.70;85.70;;;6.71;59.58;96581.41;5010138;28;20443;-62
2023/11/12 05:14:48;;;;;;;2.13;1.73;;;4.60;85.60;;;6.72;59.69;96595.44;5011150;28;20410;-62
2023/11/12 05:17:16;;;;;;;2.00;1.60;;;4.70;86.10;;;6.68;59.48;96597.56;5009260;28;20050;-62
2023/11/12 05:19:43;;;;;;;3.07;2.70;;;4.70;86.10;;;6.62;59.51;96592.94;5010548;28;20414;-62
2023/11/12 05:22:11;;;;;;;4.00;1.80;;;4.80;85.60;;;6.61;60.27;96599.19;5009976;28;20065;-62
2023/11/12 05:24:39;;;;;;;3.93;1.80;;;4.80;85.50;;;6.64;60.36;96606.81;5010481;28;20502;-62
2023/11/12 05:27:07;;;;;;;4.07;1.77;;;4.90;84.80;;;6.60;60.49;96611.59;5010416;28;20046;-62
2023/11/12 05:29:34;;;;;;;13.20;2.03;;;4.90;84.70;;;6.58;60.21;96610.13;5010807;28;20046;-62
2023/11/12 05:32:03;;;;;;;4.43;2.20;;;4.80;84.30;;;6.60;60.14;96611.59;5013578;28;20042;-62
2023/11/12 05:34:31;;;;;;;2.47;1.87;;;4.80;84.60;;;6.59;60.15;96612.59;5005908;28;20057;-62
2023/11/12 05:36:58;;;;;;;3.67;1.67;;;4.70;84.50;;;6.60;59.57;96616.91;5014143;28;20038;-62
2023/11/12 05:39:26;;;;;;;2.10;1.60;;;4.70;84.80;;;6.59;59.83;96622.34;5013758;28;20045;-62
2023/11/12 05:41:54;;;;;;;2.87;1.70;;;4.60;85.40;;;6.58;59.78;96618.06;5012176;28;20046;-62
2023/11/12 05:44:21;;;;;;;2.03;1.67;;;4.60;85.60;;;6.54;60.24;96616.72;5013751;28;20042;-62
2023/11/12 05:46:49;;;;;;;3.83;2.00;;;4.50;85.70;;;6.50;60.18;96622.31;5014172;28;20049;-62
2023/11/12 05:49:17;;;;;;;3.17;2.00;;;4.50;86.30;;;6.47;59.60;96624.47;5013446;28;20045;-62
2023/11/12 05:51:44;;;;;;;3.13;1.90;;;4.40;86.50;;;6.44;60.16;96636.19;4996201;28;20433;-62
2023/11/12 05:54:12;;;;;;;3.20;2.10;;;4.40;86.70;;;6.42;60.23;96629.41;5013785;28;20396;-62
2023/11/12 05:56:43;;;;;;;4.67;2.03;;;4.30;86.90;;;6.39;59.68;96635.00;5013730;28;20057;-62
2023/11/12 05:59:11;;;;;;;2.53;2.10;;;4.30;87.50;;;6.38;59.99;96628.06;5011672;28;20046;-62
2023/11/12 06:01:38;;;;;;;2.97;2.03;;;4.30;87.30;;;6.37;60.05;96632.53;5013306;28;20110;-61
2023/11/12 06:04:06;;;;;;;2.80;2.00;;;4.30;87.50;;;6.34;60.19;96630.22;5012247;28;20112;-61
2023/11/12 06:06:34;;;;;;;4.17;2.00;;;4.30;87.50;;;6.32;60.31;96637.47;5013695;28;20080;-62
2023/11/12 06:09:01;;;;;;;4.23;2.00;;;4.30;87.40;;;6.33;60.47;96638.28;5013401;28;20101;-61
2023/11/12 06:11:29;;;;;;;2.23;1.63;;;4.40;87.70;;;6.35;60.49;96639.78;5013448;28;20046;-62
2023/11/12 06:13:56;;;;;;;3.70;2.03;;;4.40;87.50;;;6.34;59.92;96647.88;5013441;28;20049;-61
2023/11/12 06:16:24;;;;;;;2.27;1.80;;;4.40;87.50;;;6.38;60.41;96654.50;5012968;28;20058;-62
2023/11/12 06:18:52;;;;;;;3.13;2.37;;;4.50;86.70;;;6.39;60.56;96649.06;5013253;28;20046;-64
2023/11/12 06:21:19;;;;;;;2.27;1.67;;;4.50;86.30;;;6.41;60.74;96646.25;5013236;28;20517;-63
2023/11/12 06:23:47;;;;;;;2.67;1.73;;;4.50;86.20;;;6.42;60.48;96651.38;5012915;28;20041;-63
2023/11/12 06:26:17;;;;;;;2.33;2.10;;;4.50;86.30;;;6.44;60.35;96664.44;5012961;28;20506;-63
2023/11/12 06:28:45;;;;;;;4.37;2.87;;;4.50;86.20;;;6.46;60.43;96663.28;5012996;28;20046;-63
2023/11/12 06:31:13;;;;;;;3.50;2.43;;;4.50;86.10;;;6.47;60.58;96664.94;5012475;28;20053;-63
2023/11/12 06:33:42;;;;;;;3.00;1.77;;;4.50;85.90;;;6.47;60.49;96666.75;5012751;28;20049;-63
2023/11/12 06:36:16;;;;;;;4.50;2.03;;;4.50;85.60;;;6.44;60.33;96675.84;5012888;28;20072;-63
2023/11/12 06:38:45;;;;;;;4.43;2.23;;;4.40;86.20;;;6.47;60.28;96677.34;5012930;28;20041;-63
2023/11/12 06:41:13;;;;;;;5.10;1.70;;;4.50;86.20;;;6.45;60.48;96679.31;5012520;28;20499;-63
2023/11/12 06:43:40;;;;;;;4.30;2.10;;;4.40;85.90;;;6.41;59.99;96678.78;5012350;28;20543;-63
2023/11/12 06:46:08;;;;;;;8.57;5.00;;;4.40;86.50;;;6.41;60.30;96692.03;5012848;28;20053;-63
2023/11/12 06:48:36;;;;;;;3.17;2.43;;;4.40;86.30;;;6.41;60.09;96691.19;5011627;28;20048;-63
2023/11/12 06:51:04;;;;;;;2.67;1.80;;;4.40;86.20;;;6.40;60.44;96695.66;5011385;28;20046;-63
2023/11/12 06:53:32;;;;;;;2.97;1.90;;;4.50;86.20;;;6.30;60.23;96698.44;5012253;28;20515;-63
2023/11/12 06:55:59;;;;;;;2.63;1.70;;;4.50;85.80;;;6.31;60.30;96697.44;5011593;28;20423;-63
2023/11/12 06:58:30;;;;;;;2.27;1.73;;;4.50;85.40;;;6.33;60.55;96705.19;5011713;28;20045;-63
2023/11/12 07:00:58;;;;;;;4.80;2.07;;;4.50;85.10;;;6.35;60.19;96705.06;5012574;28;20049;-64
2023/11/12 07:03:25;;;;;;;2.10;1.47;;;4.50;85.60;;;6.35;60.46;96705.88;5011853;28;20050;-63
2023/11/12 07:05:53;;;;;;;3.20;1.80;;;4.50;85.30;;;6.39;60.95;96701.94;5012373;28;20057;-64
2023/11/12 07:08:21;;;;;;;4.50;1.93;;;4.50;85.50;;;6.41;60.69;96709.72;5012354;28;20049;-64
2023/11/12 07:10:48;;;;;;;3.30;2.13;;;4.60;84.50;;;6.42;60.60;96711.38;5012432;28;20045;-64
2023/11/12 07:13:16;;;;;;;3.53;1.60;;;4.60;84.90;;;6.44;60.35;96706.75;5010625;28;20367;-63
2023/11/12 07:15:44;;;;;;;4.60;1.60;;;4.60;84.80;;;6.42;60.73;96714.84;5012301;28;20045;-63
2023/11/12 07:18:12;;;;;;;1.93;1.40;;;4.60;85.20;;;6.39;60.86;96720.44;5012197;28;20057;-64
2023/11/12 07:20:39;;;;;;;4.73;1.50;;;4.60;84.90;;;6.44;60.36;96714.69;5004191;28;20046;-63
2023/11/12 07:23:07;;;;;;;2.27;1.53;;;4.60;84.90;;;6.45;60.85;96713.69;5011712;28;20057;-64
2023/11/12 07:25:35;;;;;;;2.97;1.30;;;4.60;84.80;;;6.46;60.66;96718.81;5011848;28;20050;-63
2023/11/12 07:28:02;;;;;;;2.13;1.73;;;4.60;85.00;;;6.50;60.25;96717.50;5012054;28;20042;-64
2023/11/12 07:30:31;;;;;;;3.47;2.10;;;4.70;84.70;;;6.55;60.76;96714.38;5011853;28;20414;-63
2023/11/12 07:32:58;;;;;;;3.73;2.40;;;4.70;84.40;;;6.61;60.57;96718.22;5011452;28;20041;-64
2023/11/12 07:35:26;;;;;;;3.37;2.20;;;4.80;84.60;;;6.65;60.21;96715.13;5011858;28;20046;-64
2023/11/12 07:37:54;;;;;;;4.47;2.23;;;4.80;84.30;;;6.69;60.36;96720.91;5011652;28;20112;-63
2023/11/12 07:40:23;;;;;;;2.77;2.30;;;4.80;84.60;;;6.70;60.32;96719.91;5011553;28;20072;-63
2023/11/12 07:42:50;;;;;;;4.93;2.00;;;4.80;84.50;;;6.76;60.04;96721.09;5010027;28;20072;-63
2023/11/12 07:45:19;;;;;;;3.17;1.83;;;4.80;84.00;;;6.82;60.35;96721.28;5011661;28;20434;-64
2023/11/12 07:47:54;;;;;;;3.37;2.13;;;4.90;83.90;;;6.90;59.89;96721.31;5011521;28;20041;-65
2023/11/12 07:50:23;;;;;;;2.63;1.80;;;5.00;83.30;;;6.94;60.06;96720.97;5011689;28;20042;-64
2023/11/12 07:52:50;;;;;;;3.23;2.40;;;5.10;83.50;;;6.99;60.04;96727.44;5010758;28;20042;-64
2023/11/12 07:55:19;;;;;;;2.27;1.67;;;5.20;83.80;;;7.05;59.67;96724.16;5011419;28;20038;-64
2023/11/12 07:57:47;;;;;;;4.77;1.93;;;5.20;83.20;;;7.07;60.19;96727.47;5008398;28;20046;-64
2023/11/12 08:00:15;;;;;;;4.13;1.53;;;5.20;83.00;;;7.10;59.49;96729.81;5009158;28;20065;-64
2023/11/12 08:02:45;;;;;;;3.63;2.20;;;5.20;83.40;;;7.14;59.41;96729.50;5002199;28;20053;-64
2023/11/12 08:05:13;;;;;;;2.47;1.60;;;5.20;84.10;;;7.17;59.42;96729.16;5010687;28;20042;-64
2023/11/12 08:07:41;;;;;;;2.60;2.20;;;5.30;83.00;;;7.19;59.93;96725.38;5010080;28;20037;-64
2023/11/12 08:10:09;;;;;;;3.43;2.27;;;5.30;82.90;;;7.23;59.57;96726.69;5010268;28;20090;-64
2023/11/12 08:12:38;;;;;;;2.43;2.23;;;5.40;82.70;;;7.26;59.90;96720.25;5009226;28;20048;-64
2023/11/12 08:15:10;;;;;;;3.43;2.63;;;5.40;82.70;;;7.29;59.51;96730.50;5008301;28;20462;-64
2023/11/12 08:17:38;;;;;;;3.97;2.07;;;5.40;82.70;;;7.34;59.64;96730.00;5009018;28;20707;-64
2023/11/12 08:20:07;;;;;;;5.17;3.70;;;5.40;82.50;;;7.35;59.44;96729.00;5010181;28;20050;-65
2023/11/12 08:22:35;;;;;;;4.43;2.53;;;5.40;83.50;;;7.38;59.29;96736.63;5009723;28;20403;-64
2023/11/12 08:25:02;;;;;;;5.37;2.60;;;5.50;82.80;;;7.41;59.37;96725.72;5009966;28;20415;-64
2023/11/12 08:27:30;;;;;;;3.30;2.30;;;5.50;82.30;;;7.43;59.21;96729.03;5010028;28;20038;-64
2023/11/12 08:29:58;;;;;;;2.90;2.10;;;5.50;81.90;;;7.45;59.48;96733.16;5009864;28;20048;-64
2023/11/12 08:32:26;;;;;;;2.60;1.90;;;5.60;81.70;;;7.46;59.48;96726.91;5009672;28;20049;-65
2023/11/12 08:34:53;;;;;;;3.27;1.97;;;5.60;81.90;;;7.47;59.06;96720.59;5010173;28;20046;-65
2023/11/12 08:37:21;;;;;;;4.03;1.77;;;5.70;81.70;;;7.48;59.27;96732.00;5010125;28;20057;-64
2023/11/12 08:39:49;;;;;;;3.03;2.20;;;5.70;81.40;;;7.49;59.78;96747.75;5009531;28;20058;-64
2023/11/12 08:42:17;;;;;;;3.80;1.90;;;5.80;81.00;;;7.54;59.23;96741.97;5009634;28;20427;-64
2023/11/12 08:44:45;;;;;;;2.80;1.97;;;5.90;80.90;;;7.56;59.45;96742.63;5009983;28;20042;-64
2023/11/12 08:47:12;;;;;;;4.87;2.43;;;5.90;80.90;;;7.61;59.23;96742.13;5010282;28;20049;-65
2023/11/12 08:49:40;;;;;;;2.57;2.00;;;5.90;80.40;;;7.64;59.22;96732.03;5009457;28;20300;-64
2023/11/12 08:52:07;;;;;;;4.00;1.97;;;5.90;79.80;;;7.68;59.36;96730.72;5009489;28;20053;-65
2023/11/12 08:54:35;;;;;;;3.47;2.03;;;6.00;79.50;;;7.73;59.08;96734.69;5009762;28;20048;-64
2023/11/12 08:57:04;;;;;;;2.33;1.90;;;6.00;79.10;;;7.70;58.95;96741.16;5008746;28;20034;-65
2023/11/12 08:59:34;;;;;;;2.93;1.97;;;6.00;79.30;;;7.74;59.18;96737.16;5009576;28;20442;-65
2023/11/12 09:02:02;;;;;;;2.83;1.90;;;6.10;78.60;;;7.75;58.67;96738.00;5009603;28;20518;-64
2023/11/12 09:04:30;;;;;;;4.30;1.93;;;6.10;79.10;;;7.79;58.68;96745.47;5008154;28;20521;-65
2023/11/12 09:06:58;;;;;;;2.13;1.73;;;6.10;78.60;;;7.79;59.06;96750.75;5013382;28;20046;-65
2023/11/12 09:09:26;;;;;;;2.90;2.20;;;6.20;78.50;;;7.80;58.77;96747.09;5013361;28;20049;-65
2023/11/12 09:11:56;;;;;;;6.93;1.80;;;6.30;78.20;;;7.80;59.01;96744.44;5013279;28;20057;-66
2023/11/12 09:14:23;;;;;;;4.47;2.40;;;6.30;77.90;;;7.81;58.59;96747.91;5013609;28;20048;-66
2023/11/12 09:16:51;;;;;;;4.53;2.30;;;6.30;77.40;;;7.83;58.64;96752.09;5005603;28;20049;-67
2023/11/12 09:19:19;;;;;;;2.83;1.77;;;6.30;77.30;;;7.85;58.62;96752.75;5013076;28;20050;-67
2023/11/12 09:21:46;;;;;;;3.13;2.33;;;6.30;77.20;;;7.92;58.64;96752.91;5012741;28;20050;-67
2023/11/12 09:24:14;;;;;;;4.87;2.57;;;6.30;77.80;;;7.94;58.48;96756.19;5013500;28;20053;-67
2023/11/12 09:26:42;;;;;;;2.93;2.07;;;6.30;77.30;;;7.98;58.46;96746.91;5011991;28;20054;-66
2023/11/12 09:29:10;;;;;;;4.33;2.60;;;6.30;78.30;;;8.01;58.48;96751.91;5013011;28;20046;-66
2023/11/12 09:31:37;;;;;;;3.07;2.23;;;6.30;78.70;;;8.06;58.45;96757.53;5011784;28;20045;-67
2023/11/12 09:34:05;;;;;;;3.60;2.10;;;6.40;78.30;;;8.07;58.67;96766.31;5012785;28;20069;-67
2023/11/12 09:36:33;;;;;;;3.27;2.70;;;6.50;78.40;;;8.12;58.45;96769.28;5013877;28;20053;-67
2023/11/12 09:39:03;;;;;;;4.33;2.60;;;6.60;78.40;;;8.16;58.47;96756.50;5014517;28;20403;-66
2023/11/12 09:41:35;;;;;;;6.87;2.97;;;6.60;78.10;;;8.19;58.44;96758.84;5013939;28;20068;-66
2023/11/12 09:44:07;;;;;;;5.93;3.03;;;6.60;77.40;;;8.21;58.64;96759.50;5013838;28;20056;-65
2023/11/12 09:46:35;;;;;;;4.00;2.40;;;6.70;77.80;;;8.23;58.44;96763.63;5012696;28;20053;-65
2023/11/12 09:49:05;;;;;;;5.70;2.97;;;6.70;77.90;;;8.27;58.68;96769.44;5013749;28;20048;-65
2023/11/12 09:51:37;;;;;;;7.30;3.83;;;6.70;77.60;;;8.34;58.50;96770.44;5011951;28;20038;-66
2023/11/12 09:54:05;;;;;;;4.33;2.67;;;6.70;78.30;;;8.38;58.44;96763.78;5013747;28;20046;-66
2023/11/12 09:56:34;;;;;;;4.93;2.57;;;6.80;78.00;;;8.45;58.35;96772.75;5011254;28;20046;-66
2023/11/12 09:59:02;;;;;;;3.10;2.23;;;6.80;78.20;;;8.52;58.22;96774.72;5013556;28;20053;-66
2023/11/12 10:01:31;;;;;;;4.37;2.83;;;6.90;77.80;;;8.54;58.00;96778.03;5013884;28;20045;-67
2023/11/12 10:03:58;;;;;;;4.10;2.47;;;6.90;77.00;;;8.60;57.87;96777.34;5006008;28;20056;-67
2023/11/12 10:06:28;;;;;;;3.53;2.83;;;7.00;75.20;;;8.63;57.74;96779.69;5013692;28;20041;-66
2023/11/12 10:08:55;;;;;;;3.17;2.10;;;7.00;75.50;;;8.67;57.77;96784.47;5013200;28;20137;-66
2023/11/12 10:11:24;;;;;;;3.80;2.43;;;7.10;75.70;;;8.72;57.38;96773.34;5013609;28;20046;-66
2023/11/12 10:13:52;;;;;;;3.83;2.70;;;7.20;74.50;;;8.75;57.53;96780.16;5012868;28;20057;-66
2023/11/12 10:16:31;;;;;;;5.53;2.80;;;7.20;75.20;;;8.78;57.27;96774.47;5012947;28;20042;-68
2023/11/12 10:19:14;;;;;;;3.47;2.37;;;7.20;74.50;;;8.81;57.44;96774.97;5005354;28;20046;-68
2023/11/12 10:21:56;;;;;;;3.73;2.80;;;7.30;74.10;;;8.81;57.33;96766.19;5012806;28;20048;-67
2023/11/12 10:24:30;;;;;;;3.97;2.63;;;7.30;74.40;;;8.86;57.29;96771.81;5012830;28;20053;-67
2023/11/12 10:27:03;;;;;;;3.55;2.78;;;7.40;74.60;;;8.91;56.96;96771.28;5013269;28;20499;-67
2023/11/12 10:29:31;;;;;;;4.77;2.93;;;7.40;72.60;;;8.87;56.90;96766.31;5012841;28;20038;-68
2023/11/12 10:31:59;;;;;;;5.10;3.27;;;7.30;73.80;;;8.93;56.79;96761.31;5012838;28;20293;-68
2023/11/12 10:34:28;;;;;;;5.47;3.03;;;7.30;73.90;;;8.96;56.75;96755.69;5012937;28;20061;-68
2023/11/12 10:37:13;;;;;;;4.80;3.20;;;7.40;73.80;;;8.96;56.54;96759.16;5013261;28;20045;-67